Time;durP1;ratioP1;P1;durP2;ratioP2;P2;SDS_P1;SDS_P2;PMS_P1;PMS_P2;Temp;Humidity;BMP_temperature;BMP_pressure;BME280_temperature;BME280_humidity;BME280_pressure;Samples;Min_cycle;Max_cycle;Signal;HPM_P1;HPM_P2
2021/09/17 00:00:34;;;;;;;;;;;;;;;;;;2113466;28;47066;-74
2021/09/17 00:01:35;;;;;;;;;;;;;;;;;;2113919;28;47010;-73
2021/09/17 00:02:37;;;;;;;;;;;;;;;;;;2113779;28;46363;-73
2021/09/17 00:03:39;;;;;;;;;;;;;;;;;;2105535;28;44620;-73
2021/09/17 00:04:40;;;;;;;;;;;;;;;;;;2113520;28;47337;-74
2021/09/17 00:05:42;;;;;;;;;;;;;;;;;;2113253;28;45879;-74
2021/09/17 00:06:43;;;;;;;;;;;;;;;;;;2105781;28;45510;-74
2021/09/17 00:07:45;;;;;;;;;;;;;;;;;;2113101;28;47020;-73
2021/09/17 00:08:46;;;;;;;;;;;;;;;;;;2105669;28;45324;-72
2021/09/17 00:09:50;;;;;;;;;;;;;;;;;;2105736;28;45853;-72
2021/09/17 00:10:51;;;;;;;;;;;;;;;;;;2113728;28;42999;-72
2021/09/17 00:11:53;;;;;;;;;;;;;;;;;;2114494;27;45201;-72
2021/09/17 00:12:55;;;;;;;;;;;;;;;;;;2113686;28;43499;-73
2021/09/17 00:13:56;;;;;;;;;;;;;;;;;;2105414;28;44370;-72
2021/09/17 00:14:57;;;;;;;;;;;;;;;;;;2113263;28;44301;-72
2021/09/17 00:15:59;;;;;;;;;;;;;;;;;;2114745;27;42218;-73
2021/09/17 00:17:01;;;;;;;;;;;;;;;;;;2113735;28;42911;-73
2021/09/17 00:18:02;;;;;;;;;;;;;;;;;;2113118;28;45376;-73
2021/09/17 00:19:04;;;;;;;;;;;;;;;;;;2114215;27;43194;-73
2021/09/17 00:20:07;;;;;;;;;;;;;;;;;;2114309;27;42759;-73
2021/09/17 00:21:08;;;;;;;;;;;;;;;;;;2113657;28;45535;-73
2021/09/17 00:22:10;;;;;;;;;;;;;;;;;;2113577;28;44374;-72
2021/09/17 00:23:11;;;;;;;;;;;;;;;;;;2113574;28;45614;-72
2021/09/17 00:24:12;;;;;;;;;;;;;;;;;;2114852;27;44133;-72
2021/09/17 00:25:14;;;;;;;;;;;;;;;;;;2114224;27;42888;-71
2021/09/17 00:26:15;;;;;;;;;;;;;;;;;;2113851;28;44140;-71
2021/09/17 00:27:17;;;;;;;;;;;;;;;;;;2105304;28;42622;-71
2021/09/17 00:28:18;;;;;;;;;;;;;;;;;;2112876;28;46310;-71
2021/09/17 00:29:20;;;;;;;;;;;;;;;;;;2105339;28;44317;-71
2021/09/17 00:30:23;;;;;;;;;;;;;;;;;;2113707;28;44112;-72
2021/09/17 00:31:24;;;;;;;;;;;;;;;;;;2114428;27;44223;-72
2021/09/17 00:32:26;;;;;;;;;;;;;;;;;;2113819;28;45218;-71
2021/09/17 00:33:29;;;;;;;;;;;;;;;;;;2105306;28;45678;-71
2021/09/17 00:34:31;;;;;;;;;;;;;;;;;;2114006;28;45979;-71
2021/09/17 00:35:32;;;;;;;;;;;;;;;;;;2113824;27;46514;-72
2021/09/17 00:36:34;;;;;;;;;;;;;;;;;;2113402;28;44341;-72
2021/09/17 00:37:35;;;;;;;;;;;;;;;;;;2104736;28;45612;-72
2021/09/17 00:38:36;;;;;;;;;;;;;;;;;;2105256;28;45621;-71
2021/09/17 00:39:38;;;;;;;;;;;;;;;;;;2113516;28;45814;-72
2021/09/17 00:40:39;;;;;;;;;;;;;;;;;;2114250;27;44188;-72
2021/09/17 00:41:41;;;;;;;;;;;;;;;;;;2113509;27;45389;-72
2021/09/17 00:42:43;;;;;;;;;;;;;;;;;;2106305;28;45624;-72
2021/09/17 00:43:44;;;;;;;;;;;;;;;;;;2115052;28;45940;-72
2021/09/17 00:44:45;;;;;;;;;;;;;;;;;;2106747;28;45248;-72
2021/09/17 00:45:47;;;;;;;;;;;;;;;;;;2115104;28;45747;-72
2021/09/17 00:46:49;;;;;;;;;;;;;;;;;;2115234;28;45809;-72
2021/09/17 00:47:50;;;;;;;;;;;;;;;;;;2106371;28;46728;-73
2021/09/17 00:48:52;;;;;;;;;;;;;;;;;;2115117;28;46627;-73
2021/09/17 00:49:53;;;;;;;;;;;;;;;;;;2115026;28;44405;-73
2021/09/17 00:50:55;;;;;;;;;;;;;;;;;;2114782;28;44380;-73
2021/09/17 00:51:56;;;;;;;;;;;;;;;;;;2105677;28;45350;-72
2021/09/17 00:52:58;;;;;;;;;;;;;;;;;;2105927;28;45359;-71
2021/09/17 00:53:59;;;;;;;;;;;;;;;;;;2114567;27;44906;-71
2021/09/17 00:55:01;;;;;;;;;;;;;;;;;;2115699;27;46865;-71
2021/09/17 00:56:03;;;;;;;;;;;;;;;;;;2115674;27;46852;-72
2021/09/17 00:57:05;;;;;;;;;;;;;;;;;;2115105;28;44366;-71
2021/09/17 00:58:06;;;;;;;;;;;;;;;;;;2105443;28;47057;-71
2021/09/17 00:59:08;;;;;;;;;;;;;;;;;;2106747;28;47217;-71
2021/09/17 01:00:11;;;;;;;;;;;;;;;;;;2114906;28;47377;-71
2021/09/17 01:01:12;;;;;;;;;;;;;;;;;;2115082;28;45772;-71
2021/09/17 01:02:14;;;;;;;;;;;;;;;;;;2115424;28;44295;-71
2021/09/17 01:03:16;;;;;;;;;;;;;;;;;;2115241;28;44589;-71
2021/09/17 01:04:17;;;;;;;;;;;;;;;;;;2115515;28;45867;-71
2021/09/17 01:05:19;;;;;;;;;;;;;;;;;;2115313;27;46990;-71
2021/09/17 01:06:20;;;;;;;;;;;;;;;;;;2114771;28;44896;-72
2021/09/17 01:07:22;;;;;;;;;;;;;;;;;;2115323;28;45348;-71
2021/09/17 01:08:23;;;;;;;;;;;;;;;;;;2115502;28;45063;-71
2021/09/17 01:09:25;;;;;;;;;;;;;;;;;;2114961;28;45849;-71
2021/09/17 01:10:26;;;;;;;;;;;;;;;;;;2115059;28;46101;-72
2021/09/17 01:11:28;;;;;;;;;;;;;;;;;;2114883;28;44789;-71
2021/09/17 01:12:30;;;;;;;;;;;;;;;;;;2115441;27;47495;-71
2021/09/17 01:13:32;;;;;;;;;;;;;;;;;;2114899;28;47295;-71
2021/09/17 01:14:34;;;;;;;;;;;;;;;;;;2114822;28;47475;-71
2021/09/17 01:15:36;;;;;;;;;;;;;;;;;;2115247;28;46032;-71
2021/09/17 01:16:37;;;;;;;;;;;;;;;;;;2115022;28;42903;-71
2021/09/17 01:17:40;;;;;;;;;;;;;;;;;;2114345;28;45440;-70
2021/09/17 01:18:42;;;;;;;;;;;;;;;;;;2115086;28;44771;-70
2021/09/17 01:19:43;;;;;;;;;;;;;;;;;;2114373;28;46318;-71
2021/09/17 01:20:44;;;;;;;;;;;;;;;;;;2114985;28;42974;-71
2021/09/17 01:21:46;;;;;;;;;;;;;;;;;;2114575;28;45518;-71
2021/09/17 01:22:48;;;;;;;;;;;;;;;;;;2115033;28;44539;-71
2021/09/17 01:23:50;;;;;;;;;;;;;;;;;;2106782;28;43543;-71
2021/09/17 01:24:51;;;;;;;;;;;;;;;;;;2106482;28;44285;-71
2021/09/17 01:25:53;;;;;;;;;;;;;;;;;;2114506;28;45602;-71
2021/09/17 01:26:55;;;;;;;;;;;;;;;;;;2114791;28;44108;-70
2021/09/17 01:27:56;;;;;;;;;;;;;;;;;;2105745;28;43048;-70
2021/09/17 01:28:57;;;;;;;;;;;;;;;;;;2114963;28;43121;-70
2021/09/17 01:29:59;;;;;;;;;;;;;;;;;;2114449;28;44991;-70
2021/09/17 01:31:00;;;;;;;;;;;;;;;;;;2106716;28;43211;-71
2021/09/17 01:32:02;;;;;;;;;;;;;;;;;;2114771;28;44312;-71
2021/09/17 01:33:04;;;;;;;;;;;;;;;;;;2107017;28;42882;-71
2021/09/17 01:34:08;;;;;;;;;;;;;;;;;;2106876;28;44252;-71
2021/09/17 01:35:11;;;;;;;;;;;;;;;;;;2106399;28;44169;-71
2021/09/17 01:36:12;;;;;;;;;;;;;;;;;;2113712;28;42982;-71
2021/09/17 01:37:13;;;;;;;;;;;;;;;;;;2114445;28;43153;-71
2021/09/17 01:38:15;;;;;;;;;;;;;;;;;;2114384;28;44577;-72
2021/09/17 01:39:17;;;;;;;;;;;;;;;;;;2106789;28;45435;-71
2021/09/17 01:40:19;;;;;;;;;;;;;;;;;;2106239;28;44380;-72
2021/09/17 01:41:20;;;;;;;;;;;;;;;;;;2114882;28;45541;-71
2021/09/17 01:42:22;;;;;;;;;;;;;;;;;;2114934;27;44027;-71
2021/09/17 01:43:24;;;;;;;;;;;;;;;;;;2115525;27;45598;-71
2021/09/17 01:44:26;;;;;;;;;;;;;;;;;;2114624;28;45584;-71
2021/09/17 01:45:27;;;;;;;;;;;;;;;;;;2114793;28;46763;-72
2021/09/17 01:46:29;;;;;;;;;;;;;;;;;;2115456;27;45299;-71
2021/09/17 01:47:30;;;;;;;;;;;;;;;;;;2114786;28;45383;-73
2021/09/17 01:48:32;;;;;;;;;;;;;;;;;;2113295;27;45292;-73
2021/09/17 01:49:34;;;;;;;;;;;;;;;;;;2109901;28;46921;-73
2021/09/17 01:50:35;;;;;;;;;;;;;;;;;;2105684;27;45691;-72
2021/09/17 01:51:37;;;;;;;;;;;;;;;;;;2110191;28;45493;-72
2021/09/17 01:52:39;;;;;;;;;;;;;;;;;;2105284;28;44421;-72
2021/09/17 01:53:40;;;;;;;;;;;;;;;;;;2104147;28;44362;-73
2021/09/17 01:54:42;;;;;;;;;;;;;;;;;;2114351;28;45330;-72
2021/09/17 01:55:43;;;;;;;;;;;;;;;;;;2114646;28;45454;-72
2021/09/17 01:56:45;;;;;;;;;;;;;;;;;;2114431;28;47074;-72
2021/09/17 01:57:46;;;;;;;;;;;;;;;;;;2114343;28;45899;-72
2021/09/17 01:58:48;;;;;;;;;;;;;;;;;;2115030;28;46418;-72
2021/09/17 01:59:49;;;;;;;;;;;;;;;;;;2114599;28;46988;-72
2021/09/17 02:00:51;;;;;;;;;;;;;;;;;;2106214;28;45967;-72
2021/09/17 02:01:52;;;;;;;;;;;;;;;;;;2106307;28;46825;-72
2021/09/17 02:02:53;;;;;;;;;;;;;;;;;;2114634;28;46037;-72
2021/09/17 02:03:55;;;;;;;;;;;;;;;;;;2114684;28;46014;-72
2021/09/17 02:04:57;;;;;;;;;;;;;;;;;;2115122;27;46458;-72
2021/09/17 02:05:58;;;;;;;;;;;;;;;;;;2114403;28;46077;-72
2021/09/17 02:06:59;;;;;;;;;;;;;;;;;;2113824;28;46026;-72
2021/09/17 02:08:01;;;;;;;;;;;;;;;;;;2114867;27;44591;-72
2021/09/17 02:09:02;;;;;;;;;;;;;;;;;;2115177;27;44612;-72
2021/09/17 02:10:04;;;;;;;;;;;;;;;;;;2114783;28;45721;-72
2021/09/17 02:11:05;;;;;;;;;;;;;;;;;;2114462;28;47026;-72
2021/09/17 02:12:07;;;;;;;;;;;;;;;;;;2114409;28;46980;-72
2021/09/17 02:13:08;;;;;;;;;;;;;;;;;;2114634;28;45901;-72
2021/09/17 02:14:10;;;;;;;;;;;;;;;;;;2114677;28;45718;-73
2021/09/17 02:15:11;;;;;;;;;;;;;;;;;;2106053;28;44610;-73
2021/09/17 02:16:13;;;;;;;;;;;;;;;;;;2115048;28;46997;-73
2021/09/17 02:17:16;;;;;;;;;;;;;;;;;;2114836;28;44788;-73
2021/09/17 02:18:18;;;;;;;;;;;;;;;;;;2114351;28;45908;-73
2021/09/17 02:19:20;;;;;;;;;;;;;;;;;;2113985;28;45881;-73
2021/09/17 02:20:21;;;;;;;;;;;;;;;;;;2115616;27;47397;-73
2021/09/17 02:21:23;;;;;;;;;;;;;;;;;;2114627;28;46169;-72
2021/09/17 02:22:25;;;;;;;;;;;;;;;;;;2114505;28;44200;-73
2021/09/17 02:23:27;;;;;;;;;;;;;;;;;;2105854;28;44457;-73
2021/09/17 02:24:28;;;;;;;;;;;;;;;;;;2105758;28;44307;-72
2021/09/17 02:25:30;;;;;;;;;;;;;;;;;;2105983;28;44475;-72
2021/09/17 02:26:31;;;;;;;;;;;;;;;;;;2105576;28;44460;-73
2021/09/17 02:27:33;;;;;;;;;;;;;;;;;;2105702;28;45519;-73
2021/09/17 02:28:34;;;;;;;;;;;;;;;;;;2106173;28;42881;-72
2021/09/17 02:29:36;;;;;;;;;;;;;;;;;;2106921;28;45314;-73
2021/09/17 02:30:40;;;;;;;;;;;;;;;;;;2112379;28;44316;-72
2021/09/17 02:31:42;;;;;;;;;;;;;;;;;;2114591;28;45505;-72
2021/09/17 02:32:43;;;;;;;;;;;;;;;;;;2114589;28;44351;-72
2021/09/17 02:33:45;;;;;;;;;;;;;;;;;;2114409;28;42758;-71
2021/09/17 02:34:46;;;;;;;;;;;;;;;;;;2114894;27;46035;-71
2021/09/17 02:35:48;;;;;;;;;;;;;;;;;;2114477;28;44321;-71
2021/09/17 02:36:49;;;;;;;;;;;;;;;;;;2105876;28;44637;-71
2021/09/17 02:37:51;;;;;;;;;;;;;;;;;;2114007;28;44179;-70
2021/09/17 02:38:52;;;;;;;;;;;;;;;;;;2114340;28;45395;-71
2021/09/17 02:39:54;;;;;;;;;;;;;;;;;;2114366;28;45247;-71
2021/09/17 02:40:55;;;;;;;;;;;;;;;;;;2114254;28;45794;-71
2021/09/17 02:41:57;;;;;;;;;;;;;;;;;;2114278;28;46413;-71
2021/09/17 02:42:58;;;;;;;;;;;;;;;;;;2114650;28;43123;-71
2021/09/17 02:44:00;;;;;;;;;;;;;;;;;;2114639;28;43582;-71
2021/09/17 02:45:02;;;;;;;;;;;;;;;;;;2114041;28;45753;-71
2021/09/17 02:46:03;;;;;;;;;;;;;;;;;;2114393;28;46392;-71
2021/09/17 02:47:05;;;;;;;;;;;;;;;;;;2114353;28;46581;-72
2021/09/17 02:48:06;;;;;;;;;;;;;;;;;;2113898;28;46498;-71
2021/09/17 02:49:07;;;;;;;;;;;;;;;;;;2105736;28;45570;-71
2021/09/17 02:50:09;;;;;;;;;;;;;;;;;;2106129;28;45790;-71
2021/09/17 02:51:11;;;;;;;;;;;;;;;;;;2113936;28;46863;-71
2021/09/17 02:52:13;;;;;;;;;;;;;;;;;;2114177;27;45793;-71
2021/09/17 02:53:14;;;;;;;;;;;;;;;;;;2113418;27;43841;-71
2021/09/17 02:54:16;;;;;;;;;;;;;;;;;;2105840;28;45394;-72
2021/09/17 02:55:17;;;;;;;;;;;;;;;;;;2097555;28;45445;-71
2021/09/17 02:56:19;;;;;;;;;;;;;;;;;;2097414;28;45602;-71
2021/09/17 02:57:20;;;;;;;;;;;;;;;;;;2105805;28;46591;-71
2021/09/17 02:58:22;;;;;;;;;;;;;;;;;;2097153;28;46618;-71
2021/09/17 02:59:24;;;;;;;;;;;;;;;;;;2097650;28;43141;-72
2021/09/17 03:00:26;;;;;;;;;;;;;;;;;;2097818;28;45380;-72
2021/09/17 03:01:27;;;;;;;;;;;;;;;;;;2105827;28;46824;-72
2021/09/17 03:02:29;;;;;;;;;;;;;;;;;;2105869;28;45886;-70
2021/09/17 03:03:30;;;;;;;;;;;;;;;;;;2105630;28;45761;-70
2021/09/17 03:04:31;;;;;;;;;;;;;;;;;;2105820;28;45399;-70
2021/09/17 03:05:33;;;;;;;;;;;;;;;;;;2105278;28;45755;-70
2021/09/17 03:06:34;;;;;;;;;;;;;;;;;;2106117;28;47002;-70
2021/09/17 03:07:36;;;;;;;;;;;;;;;;;;2105611;28;44078;-70
2021/09/17 03:08:37;;;;;;;;;;;;;;;;;;2105844;28;46938;-70
2021/09/17 03:09:38;;;;;;;;;;;;;;;;;;2106117;28;44018;-70
2021/09/17 03:10:40;;;;;;;;;;;;;;;;;;2097421;28;47034;-70
2021/09/17 03:11:41;;;;;;;;;;;;;;;;;;2105791;28;47066;-70
2021/09/17 03:12:43;;;;;;;;;;;;;;;;;;2105803;28;47080;-70
2021/09/17 03:13:47;;;;;;;;;;;;;;;;;;2105848;28;47173;-70
2021/09/17 03:14:49;;;;;;;;;;;;;;;;;;2097748;28;45830;-69
2021/09/17 03:15:50;;;;;;;;;;;;;;;;;;2105723;28;45275;-70
2021/09/17 03:16:52;;;;;;;;;;;;;;;;;;2105665;28;47186;-70
2021/09/17 03:17:53;;;;;;;;;;;;;;;;;;2096722;28;46104;-70
2021/09/17 03:18:55;;;;;;;;;;;;;;;;;;2105702;28;46997;-70
2021/09/17 03:19:56;;;;;;;;;;;;;;;;;;2106165;28;45695;-70
2021/09/17 03:20:58;;;;;;;;;;;;;;;;;;2113242;28;46000;-70
2021/09/17 03:22:00;;;;;;;;;;;;;;;;;;2114108;27;47201;-70
2021/09/17 03:23:01;;;;;;;;;;;;;;;;;;2114122;28;44764;-70
2021/09/17 03:24:03;;;;;;;;;;;;;;;;;;2105756;28;45790;-70
2021/09/17 03:25:04;;;;;;;;;;;;;;;;;;2105783;28;44548;-71
2021/09/17 03:26:06;;;;;;;;;;;;;;;;;;2113803;28;45926;-71
2021/09/17 03:27:07;;;;;;;;;;;;;;;;;;2114419;28;44493;-70
2021/09/17 03:28:09;;;;;;;;;;;;;;;;;;2105276;28;43304;-71
2021/09/17 03:29:10;;;;;;;;;;;;;;;;;;2114297;28;43299;-71
2021/09/17 03:30:12;;;;;;;;;;;;;;;;;;2109747;28;45235;-70
2021/09/17 03:31:13;;;;;;;;;;;;;;;;;;2111097;28;45622;-71
2021/09/17 03:32:15;;;;;;;;;;;;;;;;;;2112940;28;44152;-71
2021/09/17 03:33:16;;;;;;;;;;;;;;;;;;2105409;28;46516;-70
2021/09/17 03:34:18;;;;;;;;;;;;;;;;;;2112853;28;44220;-70
2021/09/17 03:35:19;;;;;;;;;;;;;;;;;;2114011;28;45573;-70
2021/09/17 03:36:21;;;;;;;;;;;;;;;;;;2113743;27;45562;-70
2021/09/17 03:37:22;;;;;;;;;;;;;;;;;;2105846;28;45686;-70
2021/09/17 03:38:24;;;;;;;;;;;;;;;;;;2113809;28;43576;-70
2021/09/17 03:39:25;;;;;;;;;;;;;;;;;;2114439;28;44652;-70
2021/09/17 03:40:26;;;;;;;;;;;;;;;;;;2113753;28;45575;-71
2021/09/17 03:41:28;;;;;;;;;;;;;;;;;;2105449;28;45427;-71
2021/09/17 03:42:29;;;;;;;;;;;;;;;;;;2113254;28;44471;-70
2021/09/17 03:43:31;;;;;;;;;;;;;;;;;;2113903;28;45932;-70
2021/09/17 03:44:33;;;;;;;;;;;;;;;;;;2113935;28;45521;-71
2021/09/17 03:45:36;;;;;;;;;;;;;;;;;;2114625;27;44411;-70
2021/09/17 03:46:37;;;;;;;;;;;;;;;;;;2114571;28;45836;-71
2021/09/17 03:47:39;;;;;;;;;;;;;;;;;;2113004;28;44142;-70
2021/09/17 03:48:40;;;;;;;;;;;;;;;;;;2114373;28;44101;-70
2021/09/17 03:49:42;;;;;;;;;;;;;;;;;;2114211;28;45607;-73
2021/09/17 03:50:43;;;;;;;;;;;;;;;;;;2114447;28;44057;-72
2021/09/17 03:51:45;;;;;;;;;;;;;;;;;;2113585;28;45624;-73
2021/09/17 03:52:46;;;;;;;;;;;;;;;;;;2113288;28;46769;-72
2021/09/17 03:53:48;;;;;;;;;;;;;;;;;;2111256;28;46420;-72
2021/09/17 03:54:49;;;;;;;;;;;;;;;;;;2113772;28;45554;-72
2021/09/17 03:55:50;;;;;;;;;;;;;;;;;;2113411;28;45368;-72
2021/09/17 03:56:54;;;;;;;;;;;;;;;;;;2114130;28;45620;-72
2021/09/17 03:57:55;;;;;;;;;;;;;;;;;;2113390;28;45424;-72
2021/09/17 03:58:57;;;;;;;;;;;;;;;;;;2114397;28;45287;-72
2021/09/17 03:59:58;;;;;;;;;;;;;;;;;;2113707;28;46567;-72
2021/09/17 04:01:00;;;;;;;;;;;;;;;;;;2114034;28;45312;-72
2021/09/17 04:02:01;;;;;;;;;;;;;;;;;;2113826;28;46885;-72
2021/09/17 04:03:03;;;;;;;;;;;;;;;;;;2113747;28;45193;-72
2021/09/17 04:04:05;;;;;;;;;;;;;;;;;;2114146;27;44422;-71
2021/09/17 04:05:07;;;;;;;;;;;;;;;;;;2114395;27;46602;-71
2021/09/17 04:06:08;;;;;;;;;;;;;;;;;;2114518;27;44851;-71
2021/09/17 04:07:09;;;;;;;;;;;;;;;;;;2114057;27;45424;-71
2021/09/17 04:08:11;;;;;;;;;;;;;;;;;;2113199;28;46708;-71
2021/09/17 04:09:12;;;;;;;;;;;;;;;;;;2105747;28;46842;-71
2021/09/17 04:10:15;;;;;;;;;;;;;;;;;;2105487;28;47034;-71
2021/09/17 04:11:16;;;;;;;;;;;;;;;;;;2113897;28;47612;-71
2021/09/17 04:12:17;;;;;;;;;;;;;;;;;;2113686;28;45914;-71
2021/09/17 04:13:19;;;;;;;;;;;;;;;;;;2113956;28;47084;-71
2021/09/17 04:14:20;;;;;;;;;;;;;;;;;;2113395;28;45960;-71
2021/09/17 04:15:22;;;;;;;;;;;;;;;;;;2113871;28;45824;-72
2021/09/17 04:16:23;;;;;;;;;;;;;;;;;;2113646;27;46100;-72
2021/09/17 04:17:25;;;;;;;;;;;;;;;;;;2112980;28;45752;-72
2021/09/17 04:18:26;;;;;;;;;;;;;;;;;;2104997;28;44538;-72
2021/09/17 04:19:27;;;;;;;;;;;;;;;;;;2105256;28;45859;-72
2021/09/17 04:20:29;;;;;;;;;;;;;;;;;;2113660;28;45849;-72
2021/09/17 04:21:30;;;;;;;;;;;;;;;;;;2114340;27;46080;-73
2021/09/17 04:22:32;;;;;;;;;;;;;;;;;;2113787;28;47196;-72
2021/09/17 04:23:33;;;;;;;;;;;;;;;;;;2113926;28;43229;-72
2021/09/17 04:24:36;;;;;;;;;;;;;;;;;;2113658;27;44582;-72
2021/09/17 04:25:37;;;;;;;;;;;;;;;;;;2113680;28;46986;-72
2021/09/17 04:26:38;;;;;;;;;;;;;;;;;;2113818;28;44337;-71
2021/09/17 04:27:43;;;;;;;;;;;;;;;;;;2113928;27;45214;-72
2021/09/17 04:28:45;;;;;;;;;;;;;;;;;;2114414;27;44826;-72
2021/09/17 04:29:47;;;;;;;;;;;;;;;;;;2113779;28;46576;-72
2021/09/17 04:30:48;;;;;;;;;;;;;;;;;;2105127;28;44606;-72
2021/09/17 04:31:49;;;;;;;;;;;;;;;;;;2113621;28;45981;-72
2021/09/17 04:32:51;;;;;;;;;;;;;;;;;;2113652;28;46968;-72
2021/09/17 04:33:53;;;;;;;;;;;;;;;;;;2113744;28;44219;-72
2021/09/17 04:34:54;;;;;;;;;;;;;;;;;;2113359;28;45396;-72
2021/09/17 04:35:55;;;;;;;;;;;;;;;;;;2113749;28;44270;-72
2021/09/17 04:36:57;;;;;;;;;;;;;;;;;;2104710;28;45428;-71
2021/09/17 04:37:59;;;;;;;;;;;;;;;;;;2113192;28;45408;-72
2021/09/17 04:39:01;;;;;;;;;;;;;;;;;;2105415;28;42973;-72
2021/09/17 04:40:02;;;;;;;;;;;;;;;;;;2113290;28;45657;-72
2021/09/17 04:41:04;;;;;;;;;;;;;;;;;;2114393;27;44289;-72
2021/09/17 04:42:05;;;;;;;;;;;;;;;;;;2114397;27;44572;-72
2021/09/17 04:43:06;;;;;;;;;;;;;;;;;;2113538;28;45304;-72
2021/09/17 04:44:08;;;;;;;;;;;;;;;;;;2113489;28;44391;-72
2021/09/17 04:45:10;;;;;;;;;;;;;;;;;;2113139;28;45079;-72
2021/09/17 04:46:11;;;;;;;;;;;;;;;;;;2113476;28;42904;-72
2021/09/17 04:47:13;;;;;;;;;;;;;;;;;;2113165;28;44267;-72
2021/09/17 04:48:15;;;;;;;;;;;;;;;;;;2113229;28;44314;-72
2021/09/17 04:49:16;;;;;;;;;;;;;;;;;;2113634;28;44330;-72
2021/09/17 04:50:17;;;;;;;;;;;;;;;;;;2105216;28;44174;-72
2021/09/17 04:51:19;;;;;;;;;;;;;;;;;;2113745;28;45471;-71
2021/09/17 04:52:21;;;;;;;;;;;;;;;;;;2113232;28;45352;-71
2021/09/17 04:53:24;;;;;;;;;;;;;;;;;;2107167;28;41691;-71
2021/09/17 04:54:26;;;;;;;;;;;;;;;;;;2104088;28;44938;-71
2021/09/17 04:55:27;;;;;;;;;;;;;;;;;;2105047;28;45739;-71
2021/09/17 04:56:29;;;;;;;;;;;;;;;;;;2113474;28;45791;-71
2021/09/17 04:57:30;;;;;;;;;;;;;;;;;;2105284;28;45255;-72
2021/09/17 04:58:32;;;;;;;;;;;;;;;;;;2113547;28;45747;-72
2021/09/17 04:59:33;;;;;;;;;;;;;;;;;;2114415;27;45301;-72
2021/09/17 05:00:35;;;;;;;;;;;;;;;;;;2113439;28;45398;-72
2021/09/17 05:01:37;;;;;;;;;;;;;;;;;;2113466;28;43967;-71
2021/09/17 05:02:39;;;;;;;;;;;;;;;;;;2113869;28;45347;-72
2021/09/17 05:03:41;;;;;;;;;;;;;;;;;;2113613;28;45897;-72
2021/09/17 05:04:42;;;;;;;;;;;;;;;;;;2113376;28;45318;-71
2021/09/17 05:05:44;;;;;;;;;;;;;;;;;;2113532;28;44215;-71
2021/09/17 05:06:45;;;;;;;;;;;;;;;;;;2113840;27;46720;-71
2021/09/17 05:07:46;;;;;;;;;;;;;;;;;;2112935;28;44424;-72
2021/09/17 05:08:48;;;;;;;;;;;;;;;;;;2113506;28;45470;-71
2021/09/17 05:09:49;;;;;;;;;;;;;;;;;;2113025;28;46651;-71
2021/09/17 05:10:51;;;;;;;;;;;;;;;;;;2113375;28;45726;-71
2021/09/17 05:11:52;;;;;;;;;;;;;;;;;;2113587;28;46581;-71
2021/09/17 05:12:54;;;;;;;;;;;;;;;;;;2113409;28;46685;-71
2021/09/17 05:13:55;;;;;;;;;;;;;;;;;;2114217;27;45650;-71
2021/09/17 05:14:57;;;;;;;;;;;;;;;;;;2113128;27;46515;-71
2021/09/17 05:15:59;;;;;;;;;;;;;;;;;;2113874;28;45663;-71
2021/09/17 05:17:00;;;;;;;;;;;;;;;;;;2113141;28;45849;-71
2021/09/17 05:18:01;;;;;;;;;;;;;;;;;;2113057;28;46794;-71
2021/09/17 05:19:03;;;;;;;;;;;;;;;;;;2113246;28;45909;-71
2021/09/17 05:20:05;;;;;;;;;;;;;;;;;;2104938;28;45887;-70
2021/09/17 05:21:06;;;;;;;;;;;;;;;;;;2113184;28;44728;-70
2021/09/17 05:22:08;;;;;;;;;;;;;;;;;;2113907;27;45990;-71
2021/09/17 05:23:09;;;;;;;;;;;;;;;;;;2113313;28;46122;-70
2021/09/17 05:24:11;;;;;;;;;;;;;;;;;;2104876;28;46143;-70
2021/09/17 05:25:12;;;;;;;;;;;;;;;;;;2113260;28;46892;-70
2021/09/17 05:26:14;;;;;;;;;;;;;;;;;;2113460;28;43550;-70
2021/09/17 05:27:15;;;;;;;;;;;;;;;;;;2104830;28;46991;-71
2021/09/17 05:28:17;;;;;;;;;;;;;;;;;;2113564;27;45791;-71
2021/09/17 05:29:18;;;;;;;;;;;;;;;;;;2114592;28;46932;-71
2021/09/17 05:30:20;;;;;;;;;;;;;;;;;;2114896;28;45892;-71
2021/09/17 05:31:21;;;;;;;;;;;;;;;;;;2114499;27;44815;-71
2021/09/17 05:32:23;;;;;;;;;;;;;;;;;;2114896;28;44081;-71
2021/09/17 05:33:24;;;;;;;;;;;;;;;;;;2106445;28;45729;-71
2021/09/17 05:34:25;;;;;;;;;;;;;;;;;;2106468;28;46988;-70
2021/09/17 05:35:27;;;;;;;;;;;;;;;;;;2106282;28;45912;-70
2021/09/17 05:36:28;;;;;;;;;;;;;;;;;;2106562;28;46905;-70
2021/09/17 05:37:30;;;;;;;;;;;;;;;;;;2106008;28;45714;-70
2021/09/17 05:38:31;;;;;;;;;;;;;;;;;;2106461;28;45854;-70
2021/09/17 05:39:33;;;;;;;;;;;;;;;;;;2114903;28;43046;-70
2021/09/17 05:40:34;;;;;;;;;;;;;;;;;;2115049;28;44307;-70
2021/09/17 05:41:35;;;;;;;;;;;;;;;;;;2106477;28;43004;-71
2021/09/17 05:42:37;;;;;;;;;;;;;;;;;;2106669;28;45496;-71
2021/09/17 05:43:39;;;;;;;;;;;;;;;;;;2114999;28;43361;-71
2021/09/17 05:44:40;;;;;;;;;;;;;;;;;;2106390;28;45363;-71
2021/09/17 05:45:41;;;;;;;;;;;;;;;;;;2114753;27;44634;-71
2021/09/17 05:46:43;;;;;;;;;;;;;;;;;;2115401;27;43553;-71
2021/09/17 05:47:44;;;;;;;;;;;;;;;;;;2114055;28;41896;-71
2021/09/17 05:48:46;;;;;;;;;;;;;;;;;;2113884;28;44157;-69
2021/09/17 05:49:47;;;;;;;;;;;;;;;;;;2114756;27;43226;-72
2021/09/17 05:50:50;;;;;;;;;;;;;;;;;;2115410;27;45909;-72
2021/09/17 05:51:52;;;;;;;;;;;;;;;;;;2113345;27;44309;-71
2021/09/17 05:52:53;;;;;;;;;;;;;;;;;;2112352;28;44050;-67
2021/09/17 05:53:55;;;;;;;;;;;;;;;;;;2112586;28;45482;-67
2021/09/17 05:54:56;;;;;;;;;;;;;;;;;;2114284;27;45328;-66
2021/09/17 05:55:57;;;;;;;;;;;;;;;;;;2115219;27;44366;-67
2021/09/17 05:57:00;;;;;;;;;;;;;;;;;;2115219;27;43951;-68
2021/09/17 05:58:01;;;;;;;;;;;;;;;;;;2109220;27;45337;-69
2021/09/17 05:59:02;;;;;;;;;;;;;;;;;;2106706;28;40649;-67
2021/09/17 06:00:05;;;;;;;;;;;;;;;;;;2106474;28;45600;-69
2021/09/17 06:01:08;;;;;;;;;;;;;;;;;;2097974;28;46733;-67
2021/09/17 06:02:09;;;;;;;;;;;;;;;;;;2098163;28;45477;-67
2021/09/17 06:03:11;;;;;;;;;;;;;;;;;;2106265;28;46337;-67
2021/09/17 06:04:12;;;;;;;;;;;;;;;;;;2106219;28;45984;-67
2021/09/17 06:05:14;;;;;;;;;;;;;;;;;;2105504;28;46467;-69
2021/09/17 06:06:20;;;;;;;;;;;;;;;;;;2106659;28;44883;-70
2021/09/17 06:07:21;;;;;;;;;;;;;;;;;;2105636;27;45661;-66
2021/09/17 06:08:23;;;;;;;;;;;;;;;;;;2105539;28;43378;-66
2021/09/17 06:09:24;;;;;;;;;;;;;;;;;;2106098;28;46712;-66
2021/09/17 06:10:25;;;;;;;;;;;;;;;;;;2106194;28;45404;-66
2021/09/17 06:11:27;;;;;;;;;;;;;;;;;;2106234;28;44354;-66
2021/09/17 06:12:29;;;;;;;;;;;;;;;;;;2105738;28;45046;-66
2021/09/17 06:13:30;;;;;;;;;;;;;;;;;;2098165;28;45514;-66
2021/09/17 06:14:31;;;;;;;;;;;;;;;;;;2097741;28;46830;-66
2021/09/17 06:15:33;;;;;;;;;;;;;;;;;;2106070;28;45296;-66
2021/09/17 06:16:35;;;;;;;;;;;;;;;;;;2106247;28;44390;-66
2021/09/17 06:17:36;;;;;;;;;;;;;;;;;;2105380;28;44017;-66
2021/09/17 06:18:38;;;;;;;;;;;;;;;;;;2106887;28;46870;-66
2021/09/17 06:19:40;;;;;;;;;;;;;;;;;;2105645;28;43943;-66
2021/09/17 06:20:41;;;;;;;;;;;;;;;;;;2106227;28;46986;-67
2021/09/17 06:21:43;;;;;;;;;;;;;;;;;;2106542;28;45222;-67
2021/09/17 06:22:45;;;;;;;;;;;;;;;;;;2108989;28;44594;-66
2021/09/17 06:23:47;;;;;;;;;;;;;;;;;;2105998;28;45893;-67
2021/09/17 06:24:48;;;;;;;;;;;;;;;;;;2106016;28;45864;-67
2021/09/17 06:25:49;;;;;;;;;;;;;;;;;;2114527;28;44568;-66
2021/09/17 06:26:51;;;;;;;;;;;;;;;;;;2114921;28;45341;-66
2021/09/17 06:27:52;;;;;;;;;;;;;;;;;;2114363;28;46266;-66
2021/09/17 06:28:54;;;;;;;;;;;;;;;;;;2115181;28;47322;-67
2021/09/17 06:29:55;;;;;;;;;;;;;;;;;;2114997;27;46158;-66
2021/09/17 06:30:57;;;;;;;;;;;;;;;;;;2114844;27;47043;-67
2021/09/17 06:31:58;;;;;;;;;;;;;;;;;;2114161;28;45902;-68
2021/09/17 06:33:00;;;;;;;;;;;;;;;;;;2105944;28;46049;-68
2021/09/17 06:34:01;;;;;;;;;;;;;;;;;;2105708;28;46181;-67
2021/09/17 06:35:03;;;;;;;;;;;;;;;;;;2114154;28;45685;-68
2021/09/17 06:36:05;;;;;;;;;;;;;;;;;;2114716;27;45788;-68
2021/09/17 06:37:09;;;;;;;;;;;;;;;;;;2114986;27;46176;-69
2021/09/17 06:38:10;;;;;;;;;;;;;;;;;;2113171;28;45814;-69
2021/09/17 06:39:12;;;;;;;;;;;;;;;;;;2105963;28;44835;-68
2021/09/17 06:40:13;;;;;;;;;;;;;;;;;;2113585;28;44271;-68
2021/09/17 06:41:15;;;;;;;;;;;;;;;;;;2114598;28;47217;-68
2021/09/17 06:42:16;;;;;;;;;;;;;;;;;;2101704;28;45765;-68
2021/09/17 06:43:18;;;;;;;;;;;;;;;;;;2106048;28;47389;-70
2021/09/17 06:44:19;;;;;;;;;;;;;;;;;;2113355;28;47239;-69
2021/09/17 06:45:21;;;;;;;;;;;;;;;;;;2114104;28;44229;-68
2021/09/17 06:46:22;;;;;;;;;;;;;;;;;;2113952;28;42345;-69
2021/09/17 06:47:24;;;;;;;;;;;;;;;;;;2106025;28;43859;-68
2021/09/17 06:48:25;;;;;;;;;;;;;;;;;;2110051;28;46787;-68
2021/09/17 06:49:27;;;;;;;;;;;;;;;;;;2112262;28;43649;-68
2021/09/17 06:50:29;;;;;;;;;;;;;;;;;;2114949;27;44207;-67
2021/09/17 06:51:30;;;;;;;;;;;;;;;;;;2113825;28;42840;-68
2021/09/17 06:52:32;;;;;;;;;;;;;;;;;;2113762;28;45399;-69
2021/09/17 06:53:34;;;;;;;;;;;;;;;;;;2114455;28;45287;-68
2021/09/17 06:54:35;;;;;;;;;;;;;;;;;;2113544;28;45600;-70
2021/09/17 06:55:37;;;;;;;;;;;;;;;;;;2103644;28;45407;-68
2021/09/17 06:56:38;;;;;;;;;;;;;;;;;;2096591;28;44154;-68
2021/09/17 06:57:43;;;;;;;;;;;;;;;;;;2097110;28;44524;-68
2021/09/17 06:58:44;;;;;;;;;;;;;;;;;;2103897;28;46376;-68
2021/09/17 06:59:46;;;;;;;;;;;;;;;;;;2105553;28;42007;-68
2021/09/17 07:00:47;;;;;;;;;;;;;;;;;;2113955;28;42286;-69